sensor_id;sensor_type;location;lat;lon;timestamp;temperature;humidity
10415;DHT22;5254;47.696;9.138;2022-07-18T00:00:49;16.90;38.60
10415;DHT22;5254;47.696;9.138;2022-07-18T00:03:20;16.80;38.60
10415;DHT22;5254;47.696;9.138;2022-07-18T00:05:53;16.80;38.70
10415;DHT22;5254;47.696;9.138;2022-07-18T00:08:21;16.70;38.80
10415;DHT22;5254;47.696;9.138;2022-07-18T00:10:54;16.70;38.90
10415;DHT22;5254;47.696;9.138;2022-07-18T00:13:38;16.70;38.90
10415;DHT22;5254;47.696;9.138;2022-07-18T00:16:14;16.70;39.10
10415;DHT22;5254;47.696;9.138;2022-07-18T00:18:45;16.70;39.10
10415;DHT22;5254;47.696;9.138;2022-07-18T00:21:43;16.60;39.20
10415;DHT22;5254;47.696;9.138;2022-07-18T00:30:36;16.50;39.40
10415;DHT22;5254;47.696;9.138;2022-07-18T00:33:07;16.40;39.50
10415;DHT22;5254;47.696;9.138;2022-07-18T00:35:33;16.40;39.60
10415;DHT22;5254;47.696;9.138;2022-07-18T00:37:59;16.40;39.70
10415;DHT22;5254;47.696;9.138;2022-07-18T00:40:27;16.40;39.80
10415;DHT22;5254;47.696;9.138;2022-07-18T00:42:52;16.40;39.90
10415;DHT22;5254;47.696;9.138;2022-07-18T00:45:18;16.40;40.00
10415;DHT22;5254;47.696;9.138;2022-07-18T00:47:44;16.40;40.10
10415;DHT22;5254;47.696;9.138;2022-07-18T00:50:10;16.40;40.20
10415;DHT22;5254;47.696;9.138;2022-07-18T00:52:37;16.40;40.30
10415;DHT22;5254;47.696;9.138;2022-07-18T00:55:04;16.40;40.40
10415;DHT22;5254;47.696;9.138;2022-07-18T00:57:30;16.30;40.40
10415;DHT22;5254;47.696;9.138;2022-07-18T00:59:56;16.30;40.50
10415;DHT22;5254;47.696;9.138;2022-07-18T01:02:40;16.30;40.60
10415;DHT22;5254;47.696;9.138;2022-07-18T01:05:07;16.20;40.60
10415;DHT22;5254;47.696;9.138;2022-07-18T01:07:34;16.10;40.60
10415;DHT22;5254;47.696;9.138;2022-07-18T01:10:00;16.10;40.70
10415;DHT22;5254;47.696;9.138;2022-07-18T01:12:26;16.00;40.70
10415;DHT22;5254;47.696;9.138;2022-07-18T01:14:52;16.00;40.80
10415;DHT22;5254;47.696;9.138;2022-07-18T01:17:19;16.00;40.80
10415;DHT22;5254;47.696;9.138;2022-07-18T01:19:44;15.90;40.90
10415;DHT22;5254;47.696;9.138;2022-07-18T01:22:12;15.90;40.90
10415;DHT22;5254;47.696;9.138;2022-07-18T01:24:38;15.90;41.00
10415;DHT22;5254;47.696;9.138;2022-07-18T01:27:05;15.80;41.00
10415;DHT22;5254;47.696;9.138;2022-07-18T01:29:31;15.80;41.10
10415;DHT22;5254;47.696;9.138;2022-07-18T01:32:02;15.80;41.10
10415;DHT22;5254;47.696;9.138;2022-07-18T01:34:28;15.70;41.10
10415;DHT22;5254;47.696;9.138;2022-07-18T01:36:54;15.70;41.20
10415;DHT22;5254;47.696;9.138;2022-07-18T01:39:20;15.60;41.20
10415;DHT22;5254;47.696;9.138;2022-07-18T01:41:45;15.60;41.30
10415;DHT22;5254;47.696;9.138;2022-07-18T01:44:11;15.60;41.30
10415;DHT22;5254;47.696;9.138;2022-07-18T01:46:37;15.50;41.30
10415;DHT22;5254;47.696;9.138;2022-07-18T01:49:02;15.50;41.40
10415;DHT22;5254;47.696;9.138;2022-07-18T01:51:28;15.40;41.40
10415;DHT22;5254;47.696;9.138;2022-07-18T01:53:57;15.40;41.50
10415;DHT22;5254;47.696;9.138;2022-07-18T01:56:26;15.30;41.50
10415;DHT22;5254;47.696;9.138;2022-07-18T01:58:52;15.30;41.60
10415;DHT22;5254;47.696;9.138;2022-07-18T02:01:18;15.30;41.70
10415;DHT22;5254;47.696;9.138;2022-07-18T02:03:43;15.30;41.70
10415;DHT22;5254;47.696;9.138;2022-07-18T02:06:09;15.20;42.10
10415;DHT22;5254;47.696;9.138;2022-07-18T02:08:34;15.30;42.50
10415;DHT22;5254;47.696;9.138;2022-07-18T02:11:00;15.30;42.60
10415;DHT22;5254;47.696;9.138;2022-07-18T02:13:26;15.30;42.60
10415;DHT22;5254;47.696;9.138;2022-07-18T02:15:51;15.30;42.60
10415;DHT22;5254;47.696;9.138;2022-07-18T02:18:21;15.30;42.60
10415;DHT22;5254;47.696;9.138;2022-07-18T02:20:46;15.30;42.60
10415;DHT22;5254;47.696;9.138;2022-07-18T02:23:12;15.20;42.60
10415;DHT22;5254;47.696;9.138;2022-07-18T02:25:38;15.20;42.60
10415;DHT22;5254;47.696;9.138;2022-07-18T02:28:04;15.20;42.70
10415;DHT22;5254;47.696;9.138;2022-07-18T02:30:30;15.20;42.80
10415;DHT22;5254;47.696;9.138;2022-07-18T02:32:56;15.10;42.80
10415;DHT22;5254;47.696;9.138;2022-07-18T02:35:22;15.10;42.90
10415;DHT22;5254;47.696;9.138;2022-07-18T02:37:48;15.10;42.90
10415;DHT22;5254;47.696;9.138;2022-07-18T02:40:13;15.10;43.00
10415;DHT22;5254;47.696;9.138;2022-07-18T02:42:39;15.10;43.00
10415;DHT22;5254;47.696;9.138;2022-07-18T02:45:06;15.10;43.10
10415;DHT22;5254;47.696;9.138;2022-07-18T02:47:33;15.10;43.10
10415;DHT22;5254;47.696;9.138;2022-07-18T02:49:59;15.10;43.20
10415;DHT22;5254;47.696;9.138;2022-07-18T02:52:24;15.00;43.10
10415;DHT22;5254;47.696;9.138;2022-07-18T02:54:50;15.00;43.20
10415;DHT22;5254;47.696;9.138;2022-07-18T02:57:16;15.00;43.20
10415;DHT22;5254;47.696;9.138;2022-07-18T02:59:41;15.00;43.30
10415;DHT22;5254;47.696;9.138;2022-07-18T03:02:07;15.00;43.30
10415;DHT22;5254;47.696;9.138;2022-07-18T03:04:33;14.90;43.30
10415;DHT22;5254;47.696;9.138;2022-07-18T03:06:59;14.80;43.30
10415;DHT22;5254;47.696;9.138;2022-07-18T03:09:25;14.80;43.30
10415;DHT22;5254;47.696;9.138;2022-07-18T03:11:54;14.70;43.30
10415;DHT22;5254;47.696;9.138;2022-07-18T03:14:20;14.70;43.40
10415;DHT22;5254;47.696;9.138;2022-07-18T03:16:46;14.70;43.50
10415;DHT22;5254;47.696;9.138;2022-07-18T03:19:12;14.70;43.60
10415;DHT22;5254;47.696;9.138;2022-07-18T03:21:38;14.70;43.60
10415;DHT22;5254;47.696;9.138;2022-07-18T03:24:04;14.70;43.70
10415;DHT22;5254;47.696;9.138;2022-07-18T03:26:29;14.70;43.80
10415;DHT22;5254;47.696;9.138;2022-07-18T03:28:55;14.70;43.90
10415;DHT22;5254;47.696;9.138;2022-07-18T03:31:21;14.70;43.90
10415;DHT22;5254;47.696;9.138;2022-07-18T03:33:47;14.70;44.00
10415;DHT22;5254;47.696;9.138;2022-07-18T03:36:13;14.60;44.00
10415;DHT22;5254;47.696;9.138;2022-07-18T03:38:39;14.60;44.00
10415;DHT22;5254;47.696;9.138;2022-07-18T03:41:09;14.60;44.10
10415;DHT22;5254;47.696;9.138;2022-07-18T03:43:37;14.60;44.20
10415;DHT22;5254;47.696;9.138;2022-07-18T03:46:03;14.50;44.20
10415;DHT22;5254;47.696;9.138;2022-07-18T03:48:28;14.50;44.30
10415;DHT22;5254;47.696;9.138;2022-07-18T03:50:54;14.50;44.40
10415;DHT22;5254;47.696;9.138;2022-07-18T03:53:20;14.50;44.50
10415;DHT22;5254;47.696;9.138;2022-07-18T03:55:46;14.50;44.60
10415;DHT22;5254;47.696;9.138;2022-07-18T03:58:11;14.50;44.70
10415;DHT22;5254;47.696;9.138;2022-07-18T04:00:38;14.50;44.80
10415;DHT22;5254;47.696;9.138;2022-07-18T04:03:04;14.50;44.90
10415;DHT22;5254;47.696;9.138;2022-07-18T04:05:30;14.50;45.10
10415;DHT22;5254;47.696;9.138;2022-07-18T04:07:55;14.50;45.20
10415;DHT22;5254;47.696;9.138;2022-07-18T04:10:21;14.50;45.20
10415;DHT22;5254;47.696;9.138;2022-07-18T04:12:52;14.50;45.40
10415;DHT22;5254;47.696;9.138;2022-07-18T04:15:20;14.50;45.50
10415;DHT22;5254;47.696;9.138;2022-07-18T04:17:46;14.50;45.60
10415;DHT22;5254;47.696;9.138;2022-07-18T04:20:14;14.50;45.60
10415;DHT22;5254;47.696;9.138;2022-07-18T04:22:50;14.60;45.80
10415;DHT22;5254;47.696;9.138;2022-07-18T04:25:17;14.60;45.90
10415;DHT22;5254;47.696;9.138;2022-07-18T04:27:43;14.60;46.00
10415;DHT22;5254;47.696;9.138;2022-07-18T04:30:10;14.60;46.10
10415;DHT22;5254;47.696;9.138;2022-07-18T04:32:36;14.60;46.20
10415;DHT22;5254;47.696;9.138;2022-07-18T04:35:03;14.70;46.40
10415;DHT22;5254;47.696;9.138;2022-07-18T04:37:32;14.70;46.40
10415;DHT22;5254;47.696;9.138;2022-07-18T04:39:59;14.70;46.50
10415;DHT22;5254;47.696;9.138;2022-07-18T04:42:25;14.80;46.70
10415;DHT22;5254;47.696;9.138;2022-07-18T04:44:52;14.80;46.70
10415;DHT22;5254;47.696;9.138;2022-07-18T04:47:18;14.80;46.80
10415;DHT22;5254;47.696;9.138;2022-07-18T04:49:43;14.80;46.90
10415;DHT22;5254;47.696;9.138;2022-07-18T04:52:09;14.90;47.10
10415;DHT22;5254;47.696;9.138;2022-07-18T04:54:35;14.90;47.20
10415;DHT22;5254;47.696;9.138;2022-07-18T04:57:00;14.90;47.30
10415;DHT22;5254;47.696;9.138;2022-07-18T04:59:26;15.00;47.50
10415;DHT22;5254;47.696;9.138;2022-07-18T05:01:52;15.00;47.60
10415;DHT22;5254;47.696;9.138;2022-07-18T05:04:17;15.10;47.80
10415;DHT22;5254;47.696;9.138;2022-07-18T05:06:43;15.20;48.00
10415;DHT22;5254;47.696;9.138;2022-07-18T05:09:09;15.30;48.20
10415;DHT22;5254;47.696;9.138;2022-07-18T05:11:35;15.40;48.40
10415;DHT22;5254;47.696;9.138;2022-07-18T05:14:00;15.50;48.60
10415;DHT22;5254;47.696;9.138;2022-07-18T05:16:26;15.60;48.80
10415;DHT22;5254;47.696;9.138;2022-07-18T05:18:52;15.70;49.30
10415;DHT22;5254;47.696;9.138;2022-07-18T05:21:18;15.80;49.20
10415;DHT22;5254;47.696;9.138;2022-07-18T05:23:43;15.90;49.40
10415;DHT22;5254;47.696;9.138;2022-07-18T05:26:11;16.00;49.50
10415;DHT22;5254;47.696;9.138;2022-07-18T05:28:37;16.20;49.80
10415;DHT22;5254;47.696;9.138;2022-07-18T05:31:03;16.30;50.00
10415;DHT22;5254;47.696;9.138;2022-07-18T05:33:29;16.50;50.20
10415;DHT22;5254;47.696;9.138;2022-07-18T05:35:55;16.60;50.30
10415;DHT22;5254;47.696;9.138;2022-07-18T05:38:21;16.80;50.60
10415;DHT22;5254;47.696;9.138;2022-07-18T05:40:46;16.90;50.70
10415;DHT22;5254;47.696;9.138;2022-07-18T05:43:12;17.00;50.80
10415;DHT22;5254;47.696;9.138;2022-07-18T05:45:38;17.20;50.90
10415;DHT22;5254;47.696;9.138;2022-07-18T05:48:04;17.40;51.00
10415;DHT22;5254;47.696;9.138;2022-07-18T05:50:30;17.50;51.00
10415;DHT22;5254;47.696;9.138;2022-07-18T05:52:56;17.70;51.10
10415;DHT22;5254;47.696;9.138;2022-07-18T05:55:22;17.90;51.20
10415;DHT22;5254;47.696;9.138;2022-07-18T05:57:48;18.00;51.20
10415;DHT22;5254;47.696;9.138;2022-07-18T06:00:16;18.10;51.50
10415;DHT22;5254;47.696;9.138;2022-07-18T06:02:42;18.30;51.30
10415;DHT22;5254;47.696;9.138;2022-07-18T06:05:08;18.50;51.30
10415;DHT22;5254;47.696;9.138;2022-07-18T06:07:34;18.60;51.30
10415;DHT22;5254;47.696;9.138;2022-07-18T06:10:00;18.80;51.40
10415;DHT22;5254;47.696;9.138;2022-07-18T06:12:29;18.90;51.30
10415;DHT22;5254;47.696;9.138;2022-07-18T06:14:56;19.00;51.30
10415;DHT22;5254;47.696;9.138;2022-07-18T06:17:22;19.20;51.40
10415;DHT22;5254;47.696;9.138;2022-07-18T06:19:48;19.30;51.60
10415;DHT22;5254;47.696;9.138;2022-07-18T06:22:14;19.50;51.30
10415;DHT22;5254;47.696;9.138;2022-07-18T06:24:40;19.60;51.20
10415;DHT22;5254;47.696;9.138;2022-07-18T06:27:05;19.80;51.10
10415;DHT22;5254;47.696;9.138;2022-07-18T06:29:31;19.90;51.00
10415;DHT22;5254;47.696;9.138;2022-07-18T06:31:57;20.00;50.90
10415;DHT22;5254;47.696;9.138;2022-07-18T06:34:23;20.20;50.80
10415;DHT22;5254;47.696;9.138;2022-07-18T06:36:49;20.30;50.70
10415;DHT22;5254;47.696;9.138;2022-07-18T06:39:14;20.50;50.60
10415;DHT22;5254;47.696;9.138;2022-07-18T06:41:44;20.60;50.40
10415;DHT22;5254;47.696;9.138;2022-07-18T06:44:10;20.70;50.20
10415;DHT22;5254;47.696;9.138;2022-07-18T06:46:36;20.90;50.10
10415;DHT22;5254;47.696;9.138;2022-07-18T06:49:03;21.00;49.90
10415;DHT22;5254;47.696;9.138;2022-07-18T06:51:29;21.10;49.70
10415;DHT22;5254;47.696;9.138;2022-07-18T06:53:55;21.30;49.70
10415;DHT22;5254;47.696;9.138;2022-07-18T06:56:20;21.40;49.50
10415;DHT22;5254;47.696;9.138;2022-07-18T06:58:46;21.50;49.30
10415;DHT22;5254;47.696;9.138;2022-07-18T07:01:16;21.60;49.20
10415;DHT22;5254;47.696;9.138;2022-07-18T07:03:42;21.80;49.00
10415;DHT22;5254;47.696;9.138;2022-07-18T07:06:08;21.90;48.80
10415;DHT22;5254;47.696;9.138;2022-07-18T07:08:34;22.00;48.60
10415;DHT22;5254;47.696;9.138;2022-07-18T07:11:00;22.10;48.40
10415;DHT22;5254;47.696;9.138;2022-07-18T07:13:26;22.20;48.10
10415;DHT22;5254;47.696;9.138;2022-07-18T07:15:51;22.40;47.90
10415;DHT22;5254;47.696;9.138;2022-07-18T07:18:17;22.50;47.70
10415;DHT22;5254;47.696;9.138;2022-07-18T07:20:43;22.60;47.30
10415;DHT22;5254;47.696;9.138;2022-07-18T07:23:09;22.70;47.00
10415;DHT22;5254;47.696;9.138;2022-07-18T07:25:36;22.90;46.80
10415;DHT22;5254;47.696;9.138;2022-07-18T07:28:03;23.00;46.50
10415;DHT22;5254;47.696;9.138;2022-07-18T07:30:29;23.10;46.50
10415;DHT22;5254;47.696;9.138;2022-07-18T07:32:55;23.30;45.90
10415;DHT22;5254;47.696;9.138;2022-07-18T07:35:21;23.30;45.60
10415;DHT22;5254;47.696;9.138;2022-07-18T07:37:52;23.50;45.50
10415;DHT22;5254;47.696;9.138;2022-07-18T07:40:18;23.50;45.10
10415;DHT22;5254;47.696;9.138;2022-07-18T07:42:45;23.70;44.90
10415;DHT22;5254;47.696;9.138;2022-07-18T07:45:12;23.70;44.60
10415;DHT22;5254;47.696;9.138;2022-07-18T07:47:39;23.80;44.20
10415;DHT22;5254;47.696;9.138;2022-07-18T07:50:07;23.80;44.00
10415;DHT22;5254;47.696;9.138;2022-07-18T07:52:33;23.90;43.90
10415;DHT22;5254;47.696;9.138;2022-07-18T07:54:59;24.00;43.50
10415;DHT22;5254;47.696;9.138;2022-07-18T07:57:25;24.00;43.30
10415;DHT22;5254;47.696;9.138;2022-07-18T07:59:51;24.00;43.10
10415;DHT22;5254;47.696;9.138;2022-07-18T08:02:19;24.10;43.00
10415;DHT22;5254;47.696;9.138;2022-07-18T08:04:44;24.20;42.90
10415;DHT22;5254;47.696;9.138;2022-07-18T08:07:10;24.20;42.70
10415;DHT22;5254;47.696;9.138;2022-07-18T08:09:37;24.30;42.50
10415;DHT22;5254;47.696;9.138;2022-07-18T08:12:03;24.30;42.30
10415;DHT22;5254;47.696;9.138;2022-07-18T08:14:29;24.40;42.20
10415;DHT22;5254;47.696;9.138;2022-07-18T08:16:54;24.50;42.10
10415;DHT22;5254;47.696;9.138;2022-07-18T08:19:20;24.50;41.90
10415;DHT22;5254;47.696;9.138;2022-07-18T08:21:46;24.60;41.80
10415;DHT22;5254;47.696;9.138;2022-07-18T08:24:12;24.60;41.50
10415;DHT22;5254;47.696;9.138;2022-07-18T08:26:37;24.70;41.40
10415;DHT22;5254;47.696;9.138;2022-07-18T08:29:05;24.80;41.30
10415;DHT22;5254;47.696;9.138;2022-07-18T08:31:31;24.90;41.20
10415;DHT22;5254;47.696;9.138;2022-07-18T08:33:57;25.00;41.10
10415;DHT22;5254;47.696;9.138;2022-07-18T08:36:23;25.20;41.00
10415;DHT22;5254;47.696;9.138;2022-07-18T08:38:50;25.20;40.80
10415;DHT22;5254;47.696;9.138;2022-07-18T08:41:17;25.30;41.00
10415;DHT22;5254;47.696;9.138;2022-07-18T08:43:44;25.50;40.60
10415;DHT22;5254;47.696;9.138;2022-07-18T08:46:12;25.60;40.50
10415;DHT22;5254;47.696;9.138;2022-07-18T08:48:38;25.70;40.40
10415;DHT22;5254;47.696;9.138;2022-07-18T08:51:05;25.70;40.20
10415;DHT22;5254;47.696;9.138;2022-07-18T08:53:35;25.80;40.10
10415;DHT22;5254;47.696;9.138;2022-07-18T08:56:03;25.90;40.00
10415;DHT22;5254;47.696;9.138;2022-07-18T08:58:29;26.10;40.10
10415;DHT22;5254;47.696;9.138;2022-07-18T09:00:55;26.10;39.90
10415;DHT22;5254;47.696;9.138;2022-07-18T09:03:23;26.20;39.80
10415;DHT22;5254;47.696;9.138;2022-07-18T09:06:10;26.30;39.60
10415;DHT22;5254;47.696;9.138;2022-07-18T09:08:59;26.30;39.40
10415;DHT22;5254;47.696;9.138;2022-07-18T09:11:25;26.30;39.30
10415;DHT22;5254;47.696;9.138;2022-07-18T09:13:51;26.50;39.40
10415;DHT22;5254;47.696;9.138;2022-07-18T09:16:17;26.50;39.20
10415;DHT22;5254;47.696;9.138;2022-07-18T09:18:48;26.60;39.10
10415;DHT22;5254;47.696;9.138;2022-07-18T09:21:16;26.60;39.00
10415;DHT22;5254;47.696;9.138;2022-07-18T09:23:45;26.70;38.80
10415;DHT22;5254;47.696;9.138;2022-07-18T09:26:40;26.70;38.70
10415;DHT22;5254;47.696;9.138;2022-07-18T09:29:06;26.70;38.60
10415;DHT22;5254;47.696;9.138;2022-07-18T09:31:33;26.80;38.50
10415;DHT22;5254;47.696;9.138;2022-07-18T09:34:01;26.90;38.50
10415;DHT22;5254;47.696;9.138;2022-07-18T09:36:28;27.00;38.40
10415;DHT22;5254;47.696;9.138;2022-07-18T09:38:55;27.10;38.40
10415;DHT22;5254;47.696;9.138;2022-07-18T09:41:25;27.20;38.30
10415;DHT22;5254;47.696;9.138;2022-07-18T09:43:52;27.30;38.20
10415;DHT22;5254;47.696;9.138;2022-07-18T09:46:18;27.30;38.10
10415;DHT22;5254;47.696;9.138;2022-07-18T09:48:45;27.30;37.90
10415;DHT22;5254;47.696;9.138;2022-07-18T09:51:11;27.40;38.00
10415;DHT22;5254;47.696;9.138;2022-07-18T09:53:39;27.40;37.90
10415;DHT22;5254;47.696;9.138;2022-07-18T09:56:07;27.50;37.90
10415;DHT22;5254;47.696;9.138;2022-07-18T09:58:36;27.70;37.80
10415;DHT22;5254;47.696;9.138;2022-07-18T10:01:05;27.90;37.70
10415;DHT22;5254;47.696;9.138;2022-07-18T10:03:36;27.90;37.60
10415;DHT22;5254;47.696;9.138;2022-07-18T10:06:04;28.00;37.60
10415;DHT22;5254;47.696;9.138;2022-07-18T10:08:32;28.00;37.40
10415;DHT22;5254;47.696;9.138;2022-07-18T10:10:59;28.00;37.40
10415;DHT22;5254;47.696;9.138;2022-07-18T10:13:26;28.00;37.40
10415;DHT22;5254;47.696;9.138;2022-07-18T10:15:53;28.20;37.50
10415;DHT22;5254;47.696;9.138;2022-07-18T10:18:21;28.30;37.40
10415;DHT22;5254;47.696;9.138;2022-07-18T10:20:55;28.50;37.30
10415;DHT22;5254;47.696;9.138;2022-07-18T10:23:29;28.60;37.10
10415;DHT22;5254;47.696;9.138;2022-07-18T10:26:16;28.60;36.90
10415;DHT22;5254;47.696;9.138;2022-07-18T10:31:27;28.70;36.60
10415;DHT22;5254;47.696;9.138;2022-07-18T10:36:39;28.80;36.40
10415;DHT22;5254;47.696;9.138;2022-07-18T10:39:07;28.90;36.40
10415;DHT22;5254;47.696;9.138;2022-07-18T10:47:13;29.10;35.90
10415;DHT22;5254;47.696;9.138;2022-07-18T10:58:28;29.40;35.60
10415;DHT22;5254;47.696;9.138;2022-07-18T11:00:37;29.50;35.50
10415;DHT22;5254;47.696;9.138;2022-07-18T11:03:09;29.60;35.40
10415;DHT22;5254;47.696;9.138;2022-07-18T11:05:44;29.60;35.20
10415;DHT22;5254;47.696;9.138;2022-07-18T11:16:15;29.90;34.70
10415;DHT22;5254;47.696;9.138;2022-07-18T11:21:28;30.10;34.20
10415;DHT22;5254;47.696;9.138;2022-07-18T11:26:25;30.10;33.60
10415;DHT22;5254;47.696;9.138;2022-07-18T11:29:02;30.20;33.50
10415;DHT22;5254;47.696;9.138;2022-07-18T11:31:29;30.30;33.10
10415;DHT22;5254;47.696;9.138;2022-07-18T11:33:56;30.30;33.20
10415;DHT22;5254;47.696;9.138;2022-07-18T11:36:30;30.30;32.60
10415;DHT22;5254;47.696;9.138;2022-07-18T11:39:02;30.40;32.40
10415;DHT22;5254;47.696;9.138;2022-07-18T11:41:28;30.40;32.00
10415;DHT22;5254;47.696;9.138;2022-07-18T11:43:55;30.40;32.10
10415;DHT22;5254;47.696;9.138;2022-07-18T11:46:23;30.40;32.10
10415;DHT22;5254;47.696;9.138;2022-07-18T11:49:01;30.40;32.00
10415;DHT22;5254;47.696;9.138;2022-07-18T11:51:39;30.40;31.90
10415;DHT22;5254;47.696;9.138;2022-07-18T11:54:06;30.50;31.90
10415;DHT22;5254;47.696;9.138;2022-07-18T11:56:32;30.60;31.90
10415;DHT22;5254;47.696;9.138;2022-07-18T11:58:58;30.60;31.90
10415;DHT22;5254;47.696;9.138;2022-07-18T12:01:31;30.60;31.80
10415;DHT22;5254;47.696;9.138;2022-07-18T12:03:58;30.70;31.60
10415;DHT22;5254;47.696;9.138;2022-07-18T12:06:25;30.70;31.70
10415;DHT22;5254;47.696;9.138;2022-07-18T12:08:57;30.70;31.70
10415;DHT22;5254;47.696;9.138;2022-07-18T12:11:37;30.70;31.50
10415;DHT22;5254;47.696;9.138;2022-07-18T12:14:14;30.80;31.40
10415;DHT22;5254;47.696;9.138;2022-07-18T12:19:20;30.80;31.30
10415;DHT22;5254;47.696;9.138;2022-07-18T12:22:08;30.90;31.30
10415;DHT22;5254;47.696;9.138;2022-07-18T12:27:34;30.90;31.30
10415;DHT22;5254;47.696;9.138;2022-07-18T12:30:18;30.90;31.40
10415;DHT22;5254;47.696;9.138;2022-07-18T12:32:55;30.90;31.30
10415;DHT22;5254;47.696;9.138;2022-07-18T12:35:32;30.90;31.10
10415;DHT22;5254;47.696;9.138;2022-07-18T12:38:12;31.00;31.30
10415;DHT22;5254;47.696;9.138;2022-07-18T12:45:50;31.10;31.00
10415;DHT22;5254;47.696;9.138;2022-07-18T12:48:17;31.10;30.80
10415;DHT22;5254;47.696;9.138;2022-07-18T12:50:43;31.20;30.90
10415;DHT22;5254;47.696;9.138;2022-07-18T12:53:10;31.20;30.80
10415;DHT22;5254;47.696;9.138;2022-07-18T12:55:36;31.30;30.80
10415;DHT22;5254;47.696;9.138;2022-07-18T12:58:03;31.30;30.70
10415;DHT22;5254;47.696;9.138;2022-07-18T13:00:30;31.30;30.50
10415;DHT22;5254;47.696;9.138;2022-07-18T13:02:57;31.30;30.40
10415;DHT22;5254;47.696;9.138;2022-07-18T13:05:24;31.40;30.40
10415;DHT22;5254;47.696;9.138;2022-07-18T13:07:50;31.50;30.30
10415;DHT22;5254;47.696;9.138;2022-07-18T13:10:15;31.50;30.10
10415;DHT22;5254;47.696;9.138;2022-07-18T13:12:41;31.50;30.10
10415;DHT22;5254;47.696;9.138;2022-07-18T13:15:07;31.50;30.00
10415;DHT22;5254;47.696;9.138;2022-07-18T13:17:33;31.50;30.00
10415;DHT22;5254;47.696;9.138;2022-07-18T13:19:59;31.50;30.20
10415;DHT22;5254;47.696;9.138;2022-07-18T13:22:24;31.50;30.00
10415;DHT22;5254;47.696;9.138;2022-07-18T13:24:51;31.50;30.00
10415;DHT22;5254;47.696;9.138;2022-07-18T13:27:16;31.50;29.90
10415;DHT22;5254;47.696;9.138;2022-07-18T13:29:45;31.50;29.90
10415;DHT22;5254;47.696;9.138;2022-07-18T13:32:12;31.50;29.80
10415;DHT22;5254;47.696;9.138;2022-07-18T13:34:37;31.50;29.70
10415;DHT22;5254;47.696;9.138;2022-07-18T13:37:03;31.60;29.70
10415;DHT22;5254;47.696;9.138;2022-07-18T13:39:28;31.60;29.70
10415;DHT22;5254;47.696;9.138;2022-07-18T13:41:54;31.60;29.60
10415;DHT22;5254;47.696;9.138;2022-07-18T13:44:20;31.70;29.70
10415;DHT22;5254;47.696;9.138;2022-07-18T13:46:46;31.70;29.70
10415;DHT22;5254;47.696;9.138;2022-07-18T13:49:12;31.90;29.70
10415;DHT22;5254;47.696;9.138;2022-07-18T13:51:38;31.90;29.60
10415;DHT22;5254;47.696;9.138;2022-07-18T13:54:05;31.90;29.50
10415;DHT22;5254;47.696;9.138;2022-07-18T13:56:31;32.00;29.50
10415;DHT22;5254;47.696;9.138;2022-07-18T13:58:57;32.00;29.40
10415;DHT22;5254;47.696;9.138;2022-07-18T14:01:23;31.90;29.30
10415;DHT22;5254;47.696;9.138;2022-07-18T14:03:49;31.90;29.30
10415;DHT22;5254;47.696;9.138;2022-07-18T14:06:15;32.00;29.30
10415;DHT22;5254;47.696;9.138;2022-07-18T14:08:41;32.00;29.30
10415;DHT22;5254;47.696;9.138;2022-07-18T14:11:07;32.20;29.30
10415;DHT22;5254;47.696;9.138;2022-07-18T14:13:33;32.20;29.30
10415;DHT22;5254;47.696;9.138;2022-07-18T14:15:59;32.20;29.20
10415;DHT22;5254;47.696;9.138;2022-07-18T14:18:24;32.10;29.10
10415;DHT22;5254;47.696;9.138;2022-07-18T14:20:50;32.10;29.00
10415;DHT22;5254;47.696;9.138;2022-07-18T14:23:16;32.20;29.00
10415;DHT22;5254;47.696;9.138;2022-07-18T14:25:42;32.30;28.90
10415;DHT22;5254;47.696;9.138;2022-07-18T14:28:08;32.20;28.90
10415;DHT22;5254;47.696;9.138;2022-07-18T14:30:33;32.20;28.90
10415;DHT22;5254;47.696;9.138;2022-07-18T14:32:59;32.20;28.90
10415;DHT22;5254;47.696;9.138;2022-07-18T14:35:25;32.20;28.90
10415;DHT22;5254;47.696;9.138;2022-07-18T14:37:51;32.20;28.90
10415;DHT22;5254;47.696;9.138;2022-07-18T14:40:17;32.20;28.90
10415;DHT22;5254;47.696;9.138;2022-07-18T14:42:42;32.10;28.80
10415;DHT22;5254;47.696;9.138;2022-07-18T14:45:09;32.10;28.80
10415;DHT22;5254;47.696;9.138;2022-07-18T14:47:35;32.00;28.70
10415;DHT22;5254;47.696;9.138;2022-07-18T14:50:03;32.00;28.70
10415;DHT22;5254;47.696;9.138;2022-07-18T14:52:29;32.10;28.70
10415;DHT22;5254;47.696;9.138;2022-07-18T14:54:54;32.10;28.70
10415;DHT22;5254;47.696;9.138;2022-07-18T14:57:20;32.20;28.80
10415;DHT22;5254;47.696;9.138;2022-07-18T14:59:46;32.20;28.70
10415;DHT22;5254;47.696;9.138;2022-07-18T15:02:12;32.20;28.70
10415;DHT22;5254;47.696;9.138;2022-07-18T15:04:39;32.10;28.70
10415;DHT22;5254;47.696;9.138;2022-07-18T15:07:05;32.10;28.70
10415;DHT22;5254;47.696;9.138;2022-07-18T15:09:30;32.00;28.70
10415;DHT22;5254;47.696;9.138;2022-07-18T15:11:56;32.10;28.70
10415;DHT22;5254;47.696;9.138;2022-07-18T15:14:22;32.10;28.70
10415;DHT22;5254;47.696;9.138;2022-07-18T15:16:47;32.20;28.80
10415;DHT22;5254;47.696;9.138;2022-07-18T15:19:13;32.20;28.80
10415;DHT22;5254;47.696;9.138;2022-07-18T15:21:39;32.20;28.80
10415;DHT22;5254;47.696;9.138;2022-07-18T15:24:05;32.20;28.70
10415;DHT22;5254;47.696;9.138;2022-07-18T15:26:30;32.20;28.70
10415;DHT22;5254;47.696;9.138;2022-07-18T15:28:56;32.20;28.70
10415;DHT22;5254;47.696;9.138;2022-07-18T15:31:22;32.20;28.60
10415;DHT22;5254;47.696;9.138;2022-07-18T15:33:47;32.20;28.60
10415;DHT22;5254;47.696;9.138;2022-07-18T15:36:13;32.10;28.60
10415;DHT22;5254;47.696;9.138;2022-07-18T15:38:39;32.00;28.50
10415;DHT22;5254;47.696;9.138;2022-07-18T15:41:09;32.00;28.60
10415;DHT22;5254;47.696;9.138;2022-07-18T15:43:35;32.00;28.60
10415;DHT22;5254;47.696;9.138;2022-07-18T15:46:01;32.00;28.60
10415;DHT22;5254;47.696;9.138;2022-07-18T15:48:27;31.90;28.60
10415;DHT22;5254;47.696;9.138;2022-07-18T15:50:52;31.90;28.60
10415;DHT22;5254;47.696;9.138;2022-07-18T15:53:18;31.90;28.60
10415;DHT22;5254;47.696;9.138;2022-07-18T15:55:44;31.90;28.50
10415;DHT22;5254;47.696;9.138;2022-07-18T15:58:10;31.90;28.60
10415;DHT22;5254;47.696;9.138;2022-07-18T16:00:36;31.90;28.60
10415;DHT22;5254;47.696;9.138;2022-07-18T16:03:01;31.80;28.60
10415;DHT22;5254;47.696;9.138;2022-07-18T16:05:27;31.80;28.60
10415;DHT22;5254;47.696;9.138;2022-07-18T16:07:53;31.80;28.60
10415;DHT22;5254;47.696;9.138;2022-07-18T16:10:18;31.80;28.60
10415;DHT22;5254;47.696;9.138;2022-07-18T16:12:44;31.90;28.60
10415;DHT22;5254;47.696;9.138;2022-07-18T16:15:12;31.80;28.60
10415;DHT22;5254;47.696;9.138;2022-07-18T16:17:38;31.80;28.60
10415;DHT22;5254;47.696;9.138;2022-07-18T16:20:04;31.90;28.60
10415;DHT22;5254;47.696;9.138;2022-07-18T16:22:30;31.90;28.60
10415;DHT22;5254;47.696;9.138;2022-07-18T16:24:56;31.80;28.60
10415;DHT22;5254;47.696;9.138;2022-07-18T16:27:22;31.80;28.60
10415;DHT22;5254;47.696;9.138;2022-07-18T16:29:47;31.70;28.60
10415;DHT22;5254;47.696;9.138;2022-07-18T16:32:13;31.80;28.60
10415;DHT22;5254;47.696;9.138;2022-07-18T16:34:39;31.70;28.60